sensor_id;sensor_type;location;lat;lon;timestamp;temperature;humidity
49242;DHT22;35079;52.704;13.814;2023-03-17T00:02:05;5.00;70.30
49242;DHT22;35079;52.704;13.814;2023-03-17T00:04:30;4.90;70.70
49242;DHT22;35079;52.704;13.814;2023-03-17T00:06:57;5.10;70.90
49242;DHT22;35079;52.704;13.814;2023-03-17T00:09:24;5.00;71.10
49242;DHT22;35079;52.704;13.814;2023-03-17T00:11:49;5.00;71.10
49242;DHT22;35079;52.704;13.814;2023-03-17T00:14:15;5.00;71.50
49242;DHT22;35079;52.704;13.814;2023-03-17T00:16:42;5.00;71.80
49242;DHT22;35079;52.704;13.814;2023-03-17T00:19:15;5.10;72.40
49242;DHT22;35079;52.704;13.814;2023-03-17T00:21:41;4.90;72.00
49242;DHT22;35079;52.704;13.814;2023-03-17T00:24:10;5.00;72.30
49242;DHT22;35079;52.704;13.814;2023-03-17T00:26:36;4.90;72.70
49242;DHT22;35079;52.704;13.814;2023-03-17T00:29:02;5.00;72.70
49242;DHT22;35079;52.704;13.814;2023-03-17T00:31:29;4.90;72.50
49242;DHT22;35079;52.704;13.814;2023-03-17T00:33:55;5.10;72.50
49242;DHT22;35079;52.704;13.814;2023-03-17T00:36:22;4.90;72.80
49242;DHT22;35079;52.704;13.814;2023-03-17T00:38:48;4.90;73.70
49242;DHT22;35079;52.704;13.814;2023-03-17T00:41:14;4.70;74.30
49242;DHT22;35079;52.704;13.814;2023-03-17T00:43:40;4.80;74.40
49242;DHT22;35079;52.704;13.814;2023-03-17T00:46:10;4.70;73.90
49242;DHT22;35079;52.704;13.814;2023-03-17T00:48:39;4.80;73.90
49242;DHT22;35079;52.704;13.814;2023-03-17T00:51:06;4.80;74.20
49242;DHT22;35079;52.704;13.814;2023-03-17T00:53:31;4.80;74.70
49242;DHT22;35079;52.704;13.814;2023-03-17T00:55:57;4.80;75.20
49242;DHT22;35079;52.704;13.814;2023-03-17T00:58:30;4.70;74.80
49242;DHT22;35079;52.704;13.814;2023-03-17T01:00:56;4.60;75.70
49242;DHT22;35079;52.704;13.814;2023-03-17T01:03:22;4.70;75.80
49242;DHT22;35079;52.704;13.814;2023-03-17T01:05:49;4.50;76.20
49242;DHT22;35079;52.704;13.814;2023-03-17T01:08:16;4.40;76.50
49242;DHT22;35079;52.704;13.814;2023-03-17T01:10:42;4.50;76.80
49242;DHT22;35079;52.704;13.814;2023-03-17T01:13:10;4.50;76.10
49242;DHT22;35079;52.704;13.814;2023-03-17T01:15:36;4.60;76.80
49242;DHT22;35079;52.704;13.814;2023-03-17T01:18:03;4.50;77.10
49242;DHT22;35079;52.704;13.814;2023-03-17T01:20:30;4.50;77.10
49242;DHT22;35079;52.704;13.814;2023-03-17T01:22:57;4.40;77.60
49242;DHT22;35079;52.704;13.814;2023-03-17T01:25:22;4.50;78.30
49242;DHT22;35079;52.704;13.814;2023-03-17T01:27:48;4.40;77.50
49242;DHT22;35079;52.704;13.814;2023-03-17T01:32:40;4.50;77.40
49242;DHT22;35079;52.704;13.814;2023-03-17T01:35:05;4.50;77.90
49242;DHT22;35079;52.704;13.814;2023-03-17T01:37:31;4.40;78.50
49242;DHT22;35079;52.704;13.814;2023-03-17T01:40:00;4.60;78.00
49242;DHT22;35079;52.704;13.814;2023-03-17T01:42:25;4.60;77.70
49242;DHT22;35079;52.704;13.814;2023-03-17T01:44:55;4.60;77.20
49242;DHT22;35079;52.704;13.814;2023-03-17T01:47:20;4.60;77.80
49242;DHT22;35079;52.704;13.814;2023-03-17T01:49:47;4.60;77.10
49242;DHT22;35079;52.704;13.814;2023-03-17T01:52:14;4.80;76.90
49242;DHT22;35079;52.704;13.814;2023-03-17T01:54:44;4.80;76.90
49242;DHT22;35079;52.704;13.814;2023-03-17T01:57:18;4.70;76.50
49242;DHT22;35079;52.704;13.814;2023-03-17T01:59:47;4.60;77.10
49242;DHT22;35079;52.704;13.814;2023-03-17T02:02:15;4.50;78.20
49242;DHT22;35079;52.704;13.814;2023-03-17T02:04:42;4.70;76.90
49242;DHT22;35079;52.704;13.814;2023-03-17T02:07:08;4.50;76.30
49242;DHT22;35079;52.704;13.814;2023-03-17T02:09:34;4.60;76.70
49242;DHT22;35079;52.704;13.814;2023-03-17T02:12:00;4.40;77.30
49242;DHT22;35079;52.704;13.814;2023-03-17T02:14:26;4.50;77.20
49242;DHT22;35079;52.704;13.814;2023-03-17T02:16:51;4.70;76.90
49242;DHT22;35079;52.704;13.814;2023-03-17T02:19:17;4.60;76.90
49242;DHT22;35079;52.704;13.814;2023-03-17T02:21:46;4.50;76.60
49242;DHT22;35079;52.704;13.814;2023-03-17T02:24:18;4.60;76.50
49242;DHT22;35079;52.704;13.814;2023-03-17T02:26:44;4.60;76.10
49242;DHT22;35079;52.704;13.814;2023-03-17T02:29:11;4.50;76.30
49242;DHT22;35079;52.704;13.814;2023-03-17T02:31:37;4.70;76.30
49242;DHT22;35079;52.704;13.814;2023-03-17T02:34:02;4.50;76.10
49242;DHT22;35079;52.704;13.814;2023-03-17T02:36:28;4.50;76.40
49242;DHT22;35079;52.704;13.814;2023-03-17T02:38:53;4.50;76.30
49242;DHT22;35079;52.704;13.814;2023-03-17T02:41:19;4.40;76.00
49242;DHT22;35079;52.704;13.814;2023-03-17T02:43:44;4.50;76.80
49242;DHT22;35079;52.704;13.814;2023-03-17T02:46:10;4.60;76.60
49242;DHT22;35079;52.704;13.814;2023-03-17T02:48:36;4.50;76.40
49242;DHT22;35079;52.704;13.814;2023-03-17T02:51:02;4.40;77.20
49242;DHT22;35079;52.704;13.814;2023-03-17T02:53:28;4.40;77.30
49242;DHT22;35079;52.704;13.814;2023-03-17T02:55:53;4.40;77.40
49242;DHT22;35079;52.704;13.814;2023-03-17T02:58:19;4.50;77.30
49242;DHT22;35079;52.704;13.814;2023-03-17T03:00:44;4.50;77.80
49242;DHT22;35079;52.704;13.814;2023-03-17T03:03:10;4.30;77.00
49242;DHT22;35079;52.704;13.814;2023-03-17T03:05:35;4.40;77.10
49242;DHT22;35079;52.704;13.814;2023-03-17T03:08:01;4.40;76.70
49242;DHT22;35079;52.704;13.814;2023-03-17T03:12:58;4.40;76.40
49242;DHT22;35079;52.704;13.814;2023-03-17T03:15:23;4.40;76.80
49242;DHT22;35079;52.704;13.814;2023-03-17T03:17:49;4.40;76.80
49242;DHT22;35079;52.704;13.814;2023-03-17T03:20:15;4.40;76.40
49242;DHT22;35079;52.704;13.814;2023-03-17T03:22:40;4.40;76.40
49242;DHT22;35079;52.704;13.814;2023-03-17T03:25:06;4.40;76.30
49242;DHT22;35079;52.704;13.814;2023-03-17T03:27:32;4.40;76.70
49242;DHT22;35079;52.704;13.814;2023-03-17T03:29:58;4.30;76.70
49242;DHT22;35079;52.704;13.814;2023-03-17T03:32:23;4.50;77.00
49242;DHT22;35079;52.704;13.814;2023-03-17T03:34:49;4.30;76.40
49242;DHT22;35079;52.704;13.814;2023-03-17T03:37:15;4.40;77.20
49242;DHT22;35079;52.704;13.814;2023-03-17T03:39:44;4.20;77.00
49242;DHT22;35079;52.704;13.814;2023-03-17T03:42:10;4.20;77.00
49242;DHT22;35079;52.704;13.814;2023-03-17T03:44:35;4.20;76.60
49242;DHT22;35079;52.704;13.814;2023-03-17T03:47:01;4.40;77.30
49242;DHT22;35079;52.704;13.814;2023-03-17T03:49:27;4.20;76.70
49242;DHT22;35079;52.704;13.814;2023-03-17T03:51:52;4.20;76.90
49242;DHT22;35079;52.704;13.814;2023-03-17T03:54:17;4.20;76.80
49242;DHT22;35079;52.704;13.814;2023-03-17T03:56:43;4.20;76.70
49242;DHT22;35079;52.704;13.814;2023-03-17T03:59:08;4.20;76.80
49242;DHT22;35079;52.704;13.814;2023-03-17T04:01:34;4.30;76.90
49242;DHT22;35079;52.704;13.814;2023-03-17T04:04:00;4.10;77.30
49242;DHT22;35079;52.704;13.814;2023-03-17T04:06:26;4.10;77.30
49242;DHT22;35079;52.704;13.814;2023-03-17T04:08:51;4.10;77.60
49242;DHT22;35079;52.704;13.814;2023-03-17T04:11:17;4.10;77.50
49242;DHT22;35079;52.704;13.814;2023-03-17T04:13:42;4.20;77.40
49242;DHT22;35079;52.704;13.814;2023-03-17T04:16:08;4.10;77.50
49242;DHT22;35079;52.704;13.814;2023-03-17T04:18:34;4.00;78.40
49242;DHT22;35079;52.704;13.814;2023-03-17T04:20:59;4.10;77.50
49242;DHT22;35079;52.704;13.814;2023-03-17T04:23:25;4.10;77.70
49242;DHT22;35079;52.704;13.814;2023-03-17T04:25:52;4.10;77.50
49242;DHT22;35079;52.704;13.814;2023-03-17T04:28:17;4.00;78.00
49242;DHT22;35079;52.704;13.814;2023-03-17T04:30:43;4.20;78.40
49242;DHT22;35079;52.704;13.814;2023-03-17T04:33:09;4.20;78.70
49242;DHT22;35079;52.704;13.814;2023-03-17T04:35:34;3.90;78.40
49242;DHT22;35079;52.704;13.814;2023-03-17T04:38:00;4.00;78.70
49242;DHT22;35079;52.704;13.814;2023-03-17T04:40:26;3.90;78.60
49242;DHT22;35079;52.704;13.814;2023-03-17T04:42:51;4.10;78.80
49242;DHT22;35079;52.704;13.814;2023-03-17T04:45:17;3.90;78.80
49242;DHT22;35079;52.704;13.814;2023-03-17T04:47:42;4.10;78.10
49242;DHT22;35079;52.704;13.814;2023-03-17T04:50:10;4.00;77.90
49242;DHT22;35079;52.704;13.814;2023-03-17T04:52:36;4.10;78.20
49242;DHT22;35079;52.704;13.814;2023-03-17T04:55:02;4.10;78.10
49242;DHT22;35079;52.704;13.814;2023-03-17T04:57:28;4.00;78.70
49242;DHT22;35079;52.704;13.814;2023-03-17T04:59:53;3.90;78.70
49242;DHT22;35079;52.704;13.814;2023-03-17T05:02:19;4.00;78.20
49242;DHT22;35079;52.704;13.814;2023-03-17T05:04:45;4.10;78.30
49242;DHT22;35079;52.704;13.814;2023-03-17T05:07:11;4.10;78.40
49242;DHT22;35079;52.704;13.814;2023-03-17T05:09:36;3.90;78.90
49242;DHT22;35079;52.704;13.814;2023-03-17T05:12:02;4.00;78.50
49242;DHT22;35079;52.704;13.814;2023-03-17T05:14:27;4.00;79.10
49242;DHT22;35079;52.704;13.814;2023-03-17T05:16:53;4.10;79.50
49242;DHT22;35079;52.704;13.814;2023-03-17T05:19:18;3.90;79.20
49242;DHT22;35079;52.704;13.814;2023-03-17T05:21:44;3.90;79.60
49242;DHT22;35079;52.704;13.814;2023-03-17T05:24:10;3.90;79.00
49242;DHT22;35079;52.704;13.814;2023-03-17T05:26:36;4.10;78.50
49242;DHT22;35079;52.704;13.814;2023-03-17T05:29:01;4.00;79.30
49242;DHT22;35079;52.704;13.814;2023-03-17T05:31:27;4.00;78.60
49242;DHT22;35079;52.704;13.814;2023-03-17T05:33:55;4.00;79.20
49242;DHT22;35079;52.704;13.814;2023-03-17T05:36:20;4.10;78.50
49242;DHT22;35079;52.704;13.814;2023-03-17T05:38:46;4.10;78.40
49242;DHT22;35079;52.704;13.814;2023-03-17T05:41:11;4.10;78.80
49242;DHT22;35079;52.704;13.814;2023-03-17T05:43:37;4.00;79.00
49242;DHT22;35079;52.704;13.814;2023-03-17T05:46:03;4.20;79.10
49242;DHT22;35079;52.704;13.814;2023-03-17T05:48:28;4.00;80.60
49242;DHT22;35079;52.704;13.814;2023-03-17T05:50:54;3.80;80.30
49242;DHT22;35079;52.704;13.814;2023-03-17T05:53:19;3.90;80.00
49242;DHT22;35079;52.704;13.814;2023-03-17T05:55:45;4.00;79.60
49242;DHT22;35079;52.704;13.814;2023-03-17T05:58:12;4.00;80.60
49242;DHT22;35079;52.704;13.814;2023-03-17T06:00:40;4.10;80.20
49242;DHT22;35079;52.704;13.814;2023-03-17T06:03:05;4.10;80.40
49242;DHT22;35079;52.704;13.814;2023-03-17T06:05:32;4.20;81.30
49242;DHT22;35079;52.704;13.814;2023-03-17T06:07:58;4.20;79.90
49242;DHT22;35079;52.704;13.814;2023-03-17T06:10:23;4.30;80.90
49242;DHT22;35079;52.704;13.814;2023-03-17T06:12:49;4.40;80.90
49242;DHT22;35079;52.704;13.814;2023-03-17T06:15:15;4.30;79.90
49242;DHT22;35079;52.704;13.814;2023-03-17T06:17:41;4.30;80.40
49242;DHT22;35079;52.704;13.814;2023-03-17T06:20:17;4.40;79.50
49242;DHT22;35079;52.704;13.814;2023-03-17T06:22:43;4.40;79.00
49242;DHT22;35079;52.704;13.814;2023-03-17T06:25:09;4.50;79.50
49242;DHT22;35079;52.704;13.814;2023-03-17T06:27:35;4.40;80.50
49242;DHT22;35079;52.704;13.814;2023-03-17T06:30:01;4.60;79.80
49242;DHT22;35079;52.704;13.814;2023-03-17T06:32:27;4.40;79.40
49242;DHT22;35079;52.704;13.814;2023-03-17T06:34:52;4.40;79.70
49242;DHT22;35079;52.704;13.814;2023-03-17T06:37:18;4.60;79.80
49242;DHT22;35079;52.704;13.814;2023-03-17T06:39:45;4.70;78.30
49242;DHT22;35079;52.704;13.814;2023-03-17T06:42:12;4.60;79.70
49242;DHT22;35079;52.704;13.814;2023-03-17T06:44:41;4.80;78.40
49242;DHT22;35079;52.704;13.814;2023-03-17T06:47:07;4.70;78.40
49242;DHT22;35079;52.704;13.814;2023-03-17T06:49:33;4.60;78.80
49242;DHT22;35079;52.704;13.814;2023-03-17T06:51:58;4.80;78.70
49242;DHT22;35079;52.704;13.814;2023-03-17T06:54:24;4.90;78.00
49242;DHT22;35079;52.704;13.814;2023-03-17T06:56:50;4.80;77.70
49242;DHT22;35079;52.704;13.814;2023-03-17T06:59:16;4.90;78.50
49242;DHT22;35079;52.704;13.814;2023-03-17T07:01:41;4.90;77.70
49242;DHT22;35079;52.704;13.814;2023-03-17T07:04:07;4.90;78.30
49242;DHT22;35079;52.704;13.814;2023-03-17T07:06:33;5.00;76.90
49242;DHT22;35079;52.704;13.814;2023-03-17T07:08:59;5.00;78.00
49242;DHT22;35079;52.704;13.814;2023-03-17T07:11:25;5.00;77.60
49242;DHT22;35079;52.704;13.814;2023-03-17T07:13:50;5.00;78.20
49242;DHT22;35079;52.704;13.814;2023-03-17T07:16:16;5.20;77.90
49242;DHT22;35079;52.704;13.814;2023-03-17T07:18:43;5.20;76.60
49242;DHT22;35079;52.704;13.814;2023-03-17T07:21:09;5.20;77.50
49242;DHT22;35079;52.704;13.814;2023-03-17T07:23:34;5.40;76.10
49242;DHT22;35079;52.704;13.814;2023-03-17T07:26:00;5.50;76.00
49242;DHT22;35079;52.704;13.814;2023-03-17T07:28:26;5.60;77.50
49242;DHT22;35079;52.704;13.814;2023-03-17T07:30:52;5.60;76.90
49242;DHT22;35079;52.704;13.814;2023-03-17T07:33:18;5.60;74.90
49242;DHT22;35079;52.704;13.814;2023-03-17T07:35:47;6.00;75.00
49242;DHT22;35079;52.704;13.814;2023-03-17T07:38:13;5.90;75.80
49242;DHT22;35079;52.704;13.814;2023-03-17T07:40:39;6.00;75.40
49242;DHT22;35079;52.704;13.814;2023-03-17T07:43:05;5.90;74.10
49242;DHT22;35079;52.704;13.814;2023-03-17T07:45:30;6.10;73.90
49242;DHT22;35079;52.704;13.814;2023-03-17T07:47:56;5.90;73.10
49242;DHT22;35079;52.704;13.814;2023-03-17T07:50:22;5.90;74.60
49242;DHT22;35079;52.704;13.814;2023-03-17T07:52:48;5.90;73.80
49242;DHT22;35079;52.704;13.814;2023-03-17T07:55:13;6.20;73.90
49242;DHT22;35079;52.704;13.814;2023-03-17T07:57:40;6.10;73.50
49242;DHT22;35079;52.704;13.814;2023-03-17T08:00:05;6.40;74.20
49242;DHT22;35079;52.704;13.814;2023-03-17T08:02:35;6.60;73.10
49242;DHT22;35079;52.704;13.814;2023-03-17T08:05:00;7.00;72.10
49242;DHT22;35079;52.704;13.814;2023-03-17T08:07:28;7.60;70.20
49242;DHT22;35079;52.704;13.814;2023-03-17T08:09:53;8.10;69.10
49242;DHT22;35079;52.704;13.814;2023-03-17T08:12:19;8.30;67.70
49242;DHT22;35079;52.704;13.814;2023-03-17T08:14:45;8.50;66.90
49242;DHT22;35079;52.704;13.814;2023-03-17T08:17:10;8.60;69.10
49242;DHT22;35079;52.704;13.814;2023-03-17T08:19:36;8.90;68.20
49242;DHT22;35079;52.704;13.814;2023-03-17T08:22:02;9.20;67.40
49242;DHT22;35079;52.704;13.814;2023-03-17T08:24:27;9.60;64.60
49242;DHT22;35079;52.704;13.814;2023-03-17T08:26:53;10.00;64.90
49242;DHT22;35079;52.704;13.814;2023-03-17T08:29:19;10.40;64.30
49242;DHT22;35079;52.704;13.814;2023-03-17T08:31:44;10.70;61.70
49242;DHT22;35079;52.704;13.814;2023-03-17T08:34:10;11.10;63.40
49242;DHT22;35079;52.704;13.814;2023-03-17T08:36:36;11.90;62.70
49242;DHT22;35079;52.704;13.814;2023-03-17T08:39:02;12.40;59.30
49242;DHT22;35079;52.704;13.814;2023-03-17T08:41:29;12.80;60.70
49242;DHT22;35079;52.704;13.814;2023-03-17T08:43:56;13.20;57.90
49242;DHT22;35079;52.704;13.814;2023-03-17T08:46:23;13.50;57.50
49242;DHT22;35079;52.704;13.814;2023-03-17T08:48:49;13.40;54.00
49242;DHT22;35079;52.704;13.814;2023-03-17T08:51:23;13.20;56.00
49242;DHT22;35079;52.704;13.814;2023-03-17T08:53:50;13.30;55.80
49242;DHT22;35079;52.704;13.814;2023-03-17T08:56:16;13.10;55.30
49242;DHT22;35079;52.704;13.814;2023-03-17T08:58:42;12.90;55.70
49242;DHT22;35079;52.704;13.814;2023-03-17T09:01:07;12.70;56.00
49242;DHT22;35079;52.704;13.814;2023-03-17T09:03:35;12.70;56.00
49242;DHT22;35079;52.704;13.814;2023-03-17T09:06:01;12.20;56.60
49242;DHT22;35079;52.704;13.814;2023-03-17T09:08:30;11.80;57.80
49242;DHT22;35079;52.704;13.814;2023-03-17T09:10:55;11.80;56.80
49242;DHT22;35079;52.704;13.814;2023-03-17T09:13:21;11.50;57.10
49242;DHT22;35079;52.704;13.814;2023-03-17T09:15:47;11.40;58.50
49242;DHT22;35079;52.704;13.814;2023-03-17T09:18:13;11.40;57.00
49242;DHT22;35079;52.704;13.814;2023-03-17T09:20:38;11.50;56.90
49242;DHT22;35079;52.704;13.814;2023-03-17T09:23:08;11.20;57.70
49242;DHT22;35079;52.704;13.814;2023-03-17T09:25:34;11.00;58.80
49242;DHT22;35079;52.704;13.814;2023-03-17T09:28:00;10.90;57.40
49242;DHT22;35079;52.704;13.814;2023-03-17T09:30:26;11.10;60.90
49242;DHT22;35079;52.704;13.814;2023-03-17T09:32:51;11.30;59.30
49242;DHT22;35079;52.704;13.814;2023-03-17T09:35:18;11.70;58.10
49242;DHT22;35079;52.704;13.814;2023-03-17T09:37:43;11.70;56.80
49242;DHT22;35079;52.704;13.814;2023-03-17T09:40:11;11.70;55.60
49242;DHT22;35079;52.704;13.814;2023-03-17T09:42:45;11.70;55.90
49242;DHT22;35079;52.704;13.814;2023-03-17T09:52:54;12.30;55.80
49242;DHT22;35079;52.704;13.814;2023-03-17T09:55:29;12.50;57.30
49242;DHT22;35079;52.704;13.814;2023-03-17T09:57:55;12.50;56.60
49242;DHT22;35079;52.704;13.814;2023-03-17T10:00:21;12.70;55.60
49242;DHT22;35079;52.704;13.814;2023-03-17T10:02:51;12.70;56.70
49242;DHT22;35079;52.704;13.814;2023-03-17T10:05:30;12.80;56.20
49242;DHT22;35079;52.704;13.814;2023-03-17T10:08:11;13.10;55.10
49242;DHT22;35079;52.704;13.814;2023-03-17T10:10:42;13.30;56.20
49242;DHT22;35079;52.704;13.814;2023-03-17T10:13:21;13.40;53.30
49242;DHT22;35079;52.704;13.814;2023-03-17T10:18:14;13.40;55.40
49242;DHT22;35079;52.704;13.814;2023-03-17T10:20:47;13.40;55.40
49242;DHT22;35079;52.704;13.814;2023-03-17T10:23:14;13.30;52.70
49242;DHT22;35079;52.704;13.814;2023-03-17T10:25:42;13.30;55.30
49242;DHT22;35079;52.704;13.814;2023-03-17T10:30:36;13.70;56.40
49242;DHT22;35079;52.704;13.814;2023-03-17T10:33:05;13.70;54.80
49242;DHT22;35079;52.704;13.814;2023-03-17T10:35:34;13.60;54.50
49242;DHT22;35079;52.704;13.814;2023-03-17T10:38:01;13.60;56.80
49242;DHT22;35079;52.704;13.814;2023-03-17T10:40:38;13.50;55.70
49242;DHT22;35079;52.704;13.814;2023-03-17T10:43:04;13.50;58.90
49242;DHT22;35079;52.704;13.814;2023-03-17T10:48:00;14.00;56.80
49242;DHT22;35079;52.704;13.814;2023-03-17T10:50:34;14.10;55.90
49242;DHT22;35079;52.704;13.814;2023-03-17T10:53:04;14.40;55.30
49242;DHT22;35079;52.704;13.814;2023-03-17T10:55:31;14.10;54.90
49242;DHT22;35079;52.704;13.814;2023-03-17T11:00:30;13.90;55.80
49242;DHT22;35079;52.704;13.814;2023-03-17T11:03:02;13.60;56.70
49242;DHT22;35079;52.704;13.814;2023-03-17T11:05:28;13.80;55.80
49242;DHT22;35079;52.704;13.814;2023-03-17T11:08:05;13.90;56.20
49242;DHT22;35079;52.704;13.814;2023-03-17T11:10:35;13.70;57.00
49242;DHT22;35079;52.704;13.814;2023-03-17T11:13:01;13.90;54.80
49242;DHT22;35079;52.704;13.814;2023-03-17T11:15:27;13.70;54.50
49242;DHT22;35079;52.704;13.814;2023-03-17T11:18:02;13.60;55.10
49242;DHT22;35079;52.704;13.814;2023-03-17T11:25:53;13.70;55.20
49242;DHT22;35079;52.704;13.814;2023-03-17T11:28:26;13.80;55.60
49242;DHT22;35079;52.704;13.814;2023-03-17T11:36:13;13.90;56.40
49242;DHT22;35079;52.704;13.814;2023-03-17T11:38:49;13.90;54.00
49242;DHT22;35079;52.704;13.814;2023-03-17T11:41:31;13.80;55.70
49242;DHT22;35079;52.704;13.814;2023-03-17T11:47:07;13.90;56.80
49242;DHT22;35079;52.704;13.814;2023-03-17T11:49:38;14.10;55.70
49242;DHT22;35079;52.704;13.814;2023-03-17T11:57:19;14.20;56.70
49242;DHT22;35079;52.704;13.814;2023-03-17T12:05:09;15.30;54.20
49242;DHT22;35079;52.704;13.814;2023-03-17T12:10:15;15.70;55.90
49242;DHT22;35079;52.704;13.814;2023-03-17T12:12:46;15.60;53.10
49242;DHT22;35079;52.704;13.814;2023-03-17T12:15:30;16.00;53.30
49242;DHT22;35079;52.704;13.814;2023-03-17T12:17:58;15.90;52.10
49242;DHT22;35079;52.704;13.814;2023-03-17T12:20:38;16.00;51.20
49242;DHT22;35079;52.704;13.814;2023-03-17T12:23:13;16.10;51.50
49242;DHT22;35079;52.704;13.814;2023-03-17T12:25:48;16.40;51.50
49242;DHT22;35079;52.704;13.814;2023-03-17T12:28:17;16.70;48.70
49242;DHT22;35079;52.704;13.814;2023-03-17T12:31:05;16.70;48.90
49242;DHT22;35079;52.704;13.814;2023-03-17T12:33:33;16.70;48.90
49242;DHT22;35079;52.704;13.814;2023-03-17T12:36:01;16.60;50.40
49242;DHT22;35079;52.704;13.814;2023-03-17T12:38:38;16.60;50.80
49242;DHT22;35079;52.704;13.814;2023-03-17T12:43:57;16.30;50.70
49242;DHT22;35079;52.704;13.814;2023-03-17T12:56:58;15.20;53.00
49242;DHT22;35079;52.704;13.814;2023-03-17T12:59:24;15.40;54.30
49242;DHT22;35079;52.704;13.814;2023-03-17T13:01:54;15.70;52.90
49242;DHT22;35079;52.704;13.814;2023-03-17T13:04:28;15.70;52.50
49242;DHT22;35079;52.704;13.814;2023-03-17T13:09:40;15.50;53.40
49242;DHT22;35079;52.704;13.814;2023-03-17T13:12:33;15.40;52.40
49242;DHT22;35079;52.704;13.814;2023-03-17T13:14:52;15.20;51.10
49242;DHT22;35079;52.704;13.814;2023-03-17T13:22:33;14.60;52.40
49242;DHT22;35079;52.704;13.814;2023-03-17T13:25:11;14.60;51.80
49242;DHT22;35079;52.704;13.814;2023-03-17T13:43:11;14.30;52.50
49242;DHT22;35079;52.704;13.814;2023-03-17T13:45:44;14.30;52.80
49242;DHT22;35079;52.704;13.814;2023-03-17T13:53:36;14.30;53.30
49242;DHT22;35079;52.704;13.814;2023-03-17T13:58:33;14.00;54.10
49242;DHT22;35079;52.704;13.814;2023-03-17T14:01:01;14.10;53.80
49242;DHT22;35079;52.704;13.814;2023-03-17T14:03:29;14.10;54.90
49242;DHT22;35079;52.704;13.814;2023-03-17T14:05:56;14.00;54.90
49242;DHT22;35079;52.704;13.814;2023-03-17T14:10:54;14.00;54.90
49242;DHT22;35079;52.704;13.814;2023-03-17T14:13:21;14.20;54.40
49242;DHT22;35079;52.704;13.814;2023-03-17T14:18:36;14.10;54.00
49242;DHT22;35079;52.704;13.814;2023-03-17T14:21:04;14.10;54.60
49242;DHT22;35079;52.704;13.814;2023-03-17T14:23:30;14.10;53.20
49242;DHT22;35079;52.704;13.814;2023-03-17T14:25:57;14.10;54.80
49242;DHT22;35079;52.704;13.814;2023-03-17T14:28:29;14.10;54.20
49242;DHT22;35079;52.704;13.814;2023-03-17T14:31:04;14.10;55.40
49242;DHT22;35079;52.704;13.814;2023-03-17T14:33:31;14.00;55.40
49242;DHT22;35079;52.704;13.814;2023-03-17T14:36:00;14.00;56.10
49242;DHT22;35079;52.704;13.814;2023-03-17T14:38:29;14.00;53.50
49242;DHT22;35079;52.704;13.814;2023-03-17T14:41:00;14.00;54.30
49242;DHT22;35079;52.704;13.814;2023-03-17T14:43:25;14.00;55.30
49242;DHT22;35079;52.704;13.814;2023-03-17T14:46:05;14.00;56.70
49242;DHT22;35079;52.704;13.814;2023-03-17T14:48:32;14.00;57.30
49242;DHT22;35079;52.704;13.814;2023-03-17T14:51:22;14.00;55.90
49242;DHT22;35079;52.704;13.814;2023-03-17T14:53:46;14.10;55.30
49242;DHT22;35079;52.704;13.814;2023-03-17T14:56:12;14.10;53.80
49242;DHT22;35079;52.704;13.814;2023-03-17T14:58:44;14.20;53.50
49242;DHT22;35079;52.704;13.814;2023-03-17T15:03:38;13.90;54.50
49242;DHT22;35079;52.704;13.814;2023-03-17T15:06:06;13.90;53.40
49242;DHT22;35079;52.704;13.814;2023-03-17T15:11:01;13.90;53.80
49242;DHT22;35079;52.704;13.814;2023-03-17T15:13:27;13.90;53.80
49242;DHT22;35079;52.704;13.814;2023-03-17T15:15:56;13.80;54.10
49242;DHT22;35079;52.704;13.814;2023-03-17T15:18:23;13.80;54.30
49242;DHT22;35079;52.704;13.814;2023-03-17T15:20:49;13.90;55.00
49242;DHT22;35079;52.704;13.814;2023-03-17T15:23:16;13.70;54.70
49242;DHT22;35079;52.704;13.814;2023-03-17T15:25:43;13.70;54.10
49242;DHT22;35079;52.704;13.814;2023-03-17T15:28:13;13.60;54.00
49242;DHT22;35079;52.704;13.814;2023-03-17T15:30:40;13.60;55.30
49242;DHT22;35079;52.704;13.814;2023-03-17T15:33:16;13.70;54.00
49242;DHT22;35079;52.704;13.814;2023-03-17T15:35:43;13.60;54.70
49242;DHT22;35079;52.704;13.814;2023-03-17T15:38:10;13.70;55.30
49242;DHT22;35079;52.704;13.814;2023-03-17T15:40:35;13.70;54.50
49242;DHT22;35079;52.704;13.814;2023-03-17T15:43:01;13.40;55.20
49242;DHT22;35079;52.704;13.814;2023-03-17T15:45:27;13.40;54.00
49242;DHT22;35079;52.704;13.814;2023-03-17T15:47:52;13.40;54.40
49242;DHT22;35079;52.704;13.814;2023-03-17T15:50:21;13.40;54.90
49242;DHT22;35079;52.704;13.814;2023-03-17T15:52:48;13.40;55.40
49242;DHT22;35079;52.704;13.814;2023-03-17T15:55:15;13.20;56.20
49242;DHT22;35079;52.704;13.814;2023-03-17T15:57:41;13.20;55.60
49242;DHT22;35079;52.704;13.814;2023-03-17T16:00:07;13.20;56.10
49242;DHT22;35079;52.704;13.814;2023-03-17T16:02:33;13.10;56.40
49242;DHT22;35079;52.704;13.814;2023-03-17T16:05:00;13.10;56.80
49242;DHT22;35079;52.704;13.814;2023-03-17T16:07:27;13.10;55.80
49242;DHT22;35079;52.704;13.814;2023-03-17T16:09:55;13.10;57.10
49242;DHT22;35079;52.704;13.814;2023-03-17T16:12:20;13.10;56.80
49242;DHT22;35079;52.704;13.814;2023-03-17T16:14:46;13.00;57.20
49242;DHT22;35079;52.704;13.814;2023-03-17T16:17:16;12.80;57.40
49242;DHT22;35079;52.704;13.814;2023-03-17T16:19:42;12.70;56.40
49242;DHT22;35079;52.704;13.814;2023-03-17T16:22:33;12.70;56.80
49242;DHT22;35079;52.704;13.814;2023-03-17T16:24:59;12.70;57.30
49242;DHT22;35079;52.704;13.814;2023-03-17T16:27:25;12.80;56.90
49242;DHT22;35079;52.704;13.814;2023-03-17T16:30:01;12.60;57.60
49242;DHT22;35079;52.704;13.814;2023-03-17T16:32:26;12.60;58.40
49242;DHT22;35079;52.704;13.814;2023-03-17T16:34:52;12.70;57.70
49242;DHT22;35079;52.704;13.814;2023-03-17T16:37:17;12.70;58.10
49242;DHT22;35079;52.704;13.814;2023-03-17T16:39:43;12.60;57.40
49242;DHT22;35079;52.704;13.814;2023-03-17T16:42:19;12.70;57.80
49242;DHT22;35079;52.704;13.814;2023-03-17T16:44:45;12.40;58.70
49242;DHT22;35079;52.704;13.814;2023-03-17T16:47:10;12.40;59.40
49242;DHT22;35079;52.704;13.814;2023-03-17T16:49:36;12.30;59.20
49242;DHT22;35079;52.704;13.814;2023-03-17T16:52:01;12.20;59.20
49242;DHT22;35079;52.704;13.814;2023-03-17T16:54:27;12.20;59.10
49242;DHT22;35079;52.704;13.814;2023-03-17T16:56:55;12.10;59.30
49242;DHT22;35079;52.704;13.814;2023-03-17T16:59:21;12.00;59.30
49242;DHT22;35079;52.704;13.814;2023-03-17T17:01:48;12.00;58.80
49242;DHT22;35079;52.704;13.814;2023-03-17T17:04:14;12.10;59.30
49242;DHT22;35079;52.704;13.814;2023-03-17T17:06:39;12.10;59.10
49242;DHT22;35079;52.704;13.814;2023-03-17T17:09:05;11.90;59.00
49242;DHT22;35079;52.704;13.814;2023-03-17T17:11:31;11.90;59.30